createdAt,value
2019-02-05T00:01:38.121Z,-0.19
2019-02-05T00:06:39.610Z,-0.19
2019-02-05T00:11:41.156Z,-0.20
2019-02-05T00:16:42.565Z,-0.22
2019-02-05T00:21:43.997Z,-0.27
2019-02-05T00:26:45.522Z,-0.23
2019-02-05T00:31:47.086Z,-0.21
2019-02-05T00:36:48.515Z,-0.19
2019-02-05T00:41:49.968Z,-0.19
2019-02-05T00:46:51.392Z,-0.22
2019-02-05T00:51:53.961Z,-0.24
2019-02-05T00:56:55.391Z,-0.23
2019-02-05T01:01:56.824Z,-0.28
2019-02-05T01:06:58.496Z,-0.35
2019-02-05T01:12:00.429Z,-0.46
2019-02-05T01:17:02.065Z,-0.46
2019-02-05T01:22:04.946Z,-0.54
2019-02-05T01:27:06.474Z,-0.59
2019-02-05T01:32:08.096Z,-0.59
2019-02-05T01:37:09.521Z,-0.61
2019-02-05T01:42:11.070Z,-0.58
2019-02-05T01:47:12.689Z,-0.58
2019-02-05T01:52:15.248Z,-0.58
2019-02-05T01:57:16.721Z,-0.55
2019-02-05T02:02:18.353Z,-0.59
2019-02-05T02:07:19.973Z,-0.69
2019-02-05T02:12:21.801Z,-0.80
2019-02-05T02:17:23.724Z,-0.96
2019-02-05T02:22:25.152Z,-1.06
2019-02-05T02:27:26.782Z,-1.05
2019-02-05T02:32:28.267Z,-1.10
2019-02-05T02:37:29.704Z,-1.15
2019-02-05T02:42:31.136Z,-1.22
2019-02-05T02:47:32.565Z,-1.27
2019-02-05T02:52:34.147Z,-1.24
2019-02-05T02:57:36.337Z,-1.29
2019-02-05T03:02:37.782Z,-1.33
2019-02-05T03:07:39.393Z,-1.36
2019-02-05T03:12:41.122Z,-1.44
2019-02-05T03:17:42.692Z,-1.48
2019-02-05T03:22:45.266Z,-1.51
2019-02-05T03:27:47.618Z,-1.53
2019-02-05T03:32:49.748Z,-1.57
2019-02-05T03:37:51.371Z,-1.58
2019-02-05T03:42:53.291Z,-1.65
2019-02-05T03:48:01.248Z,-1.64
2019-02-05T03:53:17.175Z,-1.63
2019-02-05T03:58:27.614Z,-1.60
2019-02-05T04:03:37.491Z,-1.72
2019-02-05T04:08:50.771Z,-1.77
2019-02-05T04:14:18.962Z,-1.84
2019-02-05T04:19:44.364Z,-1.90
2019-02-05T04:25:14.436Z,-1.91
2019-02-05T04:30:39.659Z,-1.93
2019-02-05T04:36:08.157Z,-1.94
2019-02-05T04:41:23.978Z,-1.97
2019-02-05T04:47:04.180Z,-1.96
2019-02-05T04:52:32.331Z,-2.03
2019-02-05T04:58:10.149Z,-2.14
2019-02-05T05:03:48.796Z,-2.18
2019-02-05T05:09:20.225Z,-2.19
2019-02-05T05:14:21.641Z,-2.17
2019-02-05T05:19:23.268Z,-2.20
2019-02-05T05:24:25.301Z,-2.23
2019-02-05T05:29:27.501Z,-2.24
2019-02-05T05:34:29.229Z,-2.26
2019-02-05T05:39:30.664Z,-2.26
2019-02-05T05:44:32.108Z,-2.28
2019-02-05T05:49:34.127Z,-2.33
2019-02-05T05:54:35.690Z,-2.39
2019-02-05T05:59:37.224Z,-2.42
2019-02-05T06:04:39.149Z,-2.54
2019-02-05T06:09:41.269Z,-2.59
2019-02-05T06:14:42.699Z,-2.61
2019-02-05T06:19:44.135Z,-2.61
2019-02-05T06:24:45.709Z,-2.66
2019-02-05T06:29:47.326Z,-2.67
2019-02-05T06:34:48.793Z,-2.69
2019-02-05T06:39:50.213Z,-2.76
2019-02-05T06:44:51.746Z,-2.71
2019-02-05T06:49:53.181Z,-2.96
2019-02-05T06:54:54.651Z,-2.92
2019-02-05T06:59:56.078Z,-2.52
2019-02-05T07:04:57.539Z,-2.10
2019-02-05T07:09:59.066Z,-1.98
2019-02-05T07:15:00.889Z,-1.74
2019-02-05T07:20:09.707Z,-1.57
2019-02-05T07:25:18.232Z,-0.92
2019-02-05T07:30:26.066Z,0.18
2019-02-05T07:35:27.490Z,1.01
2019-02-05T07:40:29.322Z,1.60
2019-02-05T07:45:30.859Z,2.23
2019-02-05T07:50:32.293Z,2.81
2019-02-05T07:55:33.870Z,3.32
2019-02-05T08:00:35.402Z,3.59
2019-02-05T08:05:36.880Z,3.36
2019-02-05T08:10:38.515Z,3.81
2019-02-05T08:15:40.287Z,4.22
2019-02-05T08:20:41.866Z,4.32
2019-02-05T08:25:43.396Z,4.20
2019-02-05T08:30:47.631Z,4.14
2019-02-05T08:35:49.122Z,3.92
2019-02-05T08:40:50.552Z,3.99
2019-02-05T08:45:56.839Z,3.93
2019-02-05T08:50:55.668Z,4.28
2019-02-05T08:55:57.231Z,4.92
2019-02-05T09:00:58.768Z,5.31
2019-02-05T09:06:00.350Z,5.98
2019-02-05T09:11:02.479Z,6.69
2019-02-05T09:16:04.223Z,7.38
2019-02-05T09:21:05.745Z,7.79
2019-02-05T09:26:07.692Z,8.31
2019-02-05T09:31:09.116Z,8.57
2019-02-05T09:36:10.721Z,8.85
2019-02-05T09:41:12.640Z,8.90
2019-02-05T09:46:14.702Z,8.66
2019-02-05T09:51:16.146Z,8.51
2019-02-05T09:56:17.687Z,8.72
2019-02-05T10:01:19.230Z,9.09
2019-02-05T10:06:20.804Z,9.23
2019-02-05T10:11:22.386Z,8.95
2019-02-05T10:16:23.869Z,8.77
2019-02-05T10:21:25.504Z,8.88
2019-02-05T10:26:27.035Z,8.93
2019-02-05T10:31:29.573Z,8.75
2019-02-05T10:36:32.109Z,8.73
2019-02-05T10:41:33.687Z,8.95
2019-02-05T10:46:35.456Z,8.68
2019-02-05T10:51:37.089Z,8.56
2019-02-05T10:56:38.521Z,8.38
2019-02-05T11:01:40.090Z,8.17
2019-02-05T11:06:41.632Z,7.60
2019-02-05T11:11:43.114Z,7.24
2019-02-05T11:16:44.642Z,7.26
2019-02-05T11:21:46.127Z,7.56
2019-02-05T11:26:47.660Z,7.69
2019-02-05T11:31:49.134Z,8.04
2019-02-05T11:36:50.565Z,8.59
2019-02-05T11:41:52.137Z,9.12
2019-02-05T11:46:53.827Z,9.54
2019-02-05T11:51:56.814Z,9.27
2019-02-05T11:56:58.464Z,9.49
2019-02-05T12:02:00.001Z,9.72
2019-02-05T12:07:02.276Z,9.90
2019-02-05T12:12:03.919Z,10.12
2019-02-05T12:17:05.466Z,10.58
2019-02-05T12:22:07.722Z,10.69
2019-02-05T12:27:09.151Z,10.87
2019-02-05T12:32:10.789Z,11.00
2019-02-05T12:37:12.686Z,11.02
2019-02-05T12:42:14.155Z,10.87
2019-02-05T12:47:15.825Z,10.61
2019-02-05T12:52:17.372Z,10.30
2019-02-05T12:57:18.807Z,10.16
2019-02-05T13:02:20.258Z,9.75
2019-02-05T13:07:21.843Z,9.40
2019-02-05T13:12:23.387Z,9.36
2019-02-05T13:17:25.596Z,9.27
2019-02-05T13:22:27.448Z,9.10
2019-02-05T13:27:28.901Z,9.03
2019-02-05T13:32:30.508Z,8.89
2019-02-05T13:37:33.890Z,8.81
2019-02-05T13:42:35.414Z,7.92
2019-02-05T13:47:37.149Z,8.04
2019-02-05T13:52:38.700Z,7.90
2019-02-05T13:57:40.594Z,7.60
2019-02-05T14:02:42.317Z,7.24
2019-02-05T14:07:43.817Z,7.23
2019-02-05T14:12:45.445Z,7.16
2019-02-05T14:17:47.386Z,6.95
2019-02-05T14:22:49.035Z,6.72
2019-02-05T14:27:50.682Z,6.76
2019-02-05T14:32:52.135Z,6.55
2019-02-05T14:37:54.538Z,6.23
2019-02-05T14:42:56.266Z,6.01
2019-02-05T14:47:57.765Z,5.72
2019-02-05T14:52:59.804Z,5.33
2019-02-05T14:58:01.591Z,4.97
2019-02-05T15:03:07.314Z,4.54
2019-02-05T15:08:10.359Z,4.29
2019-02-05T15:13:12.155Z,4.17
2019-02-05T15:18:14.192Z,3.93
2019-02-05T15:23:16.014Z,3.54
2019-02-05T15:28:17.927Z,3.31
2019-02-05T15:33:21.805Z,3.07
2019-02-05T15:38:23.337Z,2.88
2019-02-05T15:43:25.824Z,2.88
2019-02-05T15:48:27.324Z,2.77
2019-02-05T15:53:28.859Z,2.62
2019-02-05T15:58:30.532Z,2.46
2019-02-05T16:03:32.167Z,2.32
2019-02-05T16:08:35.118Z,2.22
2019-02-05T16:13:36.750Z,2.17
2019-02-05T16:18:38.180Z,2.11
2019-02-05T16:23:39.748Z,2.07
2019-02-05T16:28:41.199Z,2.03
2019-02-05T16:33:42.728Z,2.01
2019-02-05T16:38:44.182Z,1.96
2019-02-05T16:43:46.823Z,1.83
2019-02-05T16:48:48.395Z,1.78
2019-02-05T16:53:49.861Z,1.71
2019-02-05T16:58:51.356Z,1.58
2019-02-05T17:03:54.216Z,1.47
2019-02-05T17:08:57.686Z,1.11
2019-02-05T17:13:59.331Z,0.90
2019-02-05T17:19:00.835Z,0.79
2019-02-05T17:24:03.001Z,0.54
2019-02-05T17:29:04.849Z,0.35
2019-02-05T17:34:06.487Z,0.28
2019-02-05T17:39:10.559Z,0.11
2019-02-05T17:44:12.709Z,-0.03
2019-02-05T17:49:15.110Z,-0.04
2019-02-05T17:54:17.275Z,-0.03
2019-02-05T17:59:20.308Z,-0.04
2019-02-05T18:04:24.009Z,0.01
2019-02-05T18:09:25.491Z,0.04
2019-02-05T18:14:26.966Z,0.14
2019-02-05T18:19:28.461Z,0.15
2019-02-05T18:24:30.010Z,0.16
2019-02-05T18:29:31.584Z,0.10
2019-02-05T18:34:33.230Z,0.00
2019-02-05T18:39:34.713Z,-0.15
2019-02-05T18:44:36.351Z,-0.24
2019-02-05T18:49:37.852Z,-0.30
2019-02-05T18:54:39.344Z,-0.53
2019-02-05T18:59:40.791Z,-0.66
2019-02-05T19:04:42.261Z,-0.80
2019-02-05T19:09:44.300Z,-0.91
2019-02-05T19:14:45.875Z,-0.97
2019-02-05T19:19:47.419Z,-1.06
2019-02-05T19:24:50.806Z,-1.18
2019-02-05T19:29:52.512Z,-1.31
2019-02-05T19:34:57.049Z,-1.40
2019-02-05T19:39:58.858Z,-1.57
2019-02-05T19:45:02.256Z,-1.64
2019-02-05T19:50:07.444Z,-1.80
2019-02-05T19:55:09.900Z,-1.72
2019-02-05T20:00:17.887Z,-1.81
2019-02-05T20:05:19.414Z,-1.86
2019-02-05T20:10:21.653Z,-2.04
2019-02-05T20:15:23.536Z,-2.11
2019-02-05T20:20:25.016Z,-2.09
2019-02-05T20:25:26.870Z,-2.14
2019-02-05T20:30:29.688Z,-2.19
2019-02-05T20:35:31.230Z,-2.17
2019-02-05T20:40:32.868Z,-2.20
2019-02-05T20:45:34.368Z,-2.20
2019-02-05T20:50:35.900Z,-2.20
2019-02-05T20:55:37.424Z,-2.22
2019-02-05T21:00:38.979Z,-2.28
2019-02-05T21:05:40.558Z,-2.28
2019-02-05T21:10:41.993Z,-2.28
2019-02-05T21:15:43.588Z,-2.32
2019-02-05T21:20:45.118Z,-2.35
2019-02-05T21:25:46.588Z,-2.36
2019-02-05T21:30:48.012Z,-2.37
2019-02-05T21:35:49.448Z,-2.38
2019-02-05T21:40:50.886Z,-2.39
2019-02-05T21:45:52.462Z,-2.35
2019-02-05T21:50:54.324Z,-2.24
2019-02-05T21:55:55.803Z,-2.20
2019-02-05T22:00:57.246Z,-2.16
2019-02-05T22:05:58.987Z,-2.06
2019-02-05T22:11:00.407Z,-1.96
2019-02-05T22:16:01.873Z,-1.82
2019-02-05T22:21:03.805Z,-1.66
2019-02-05T22:26:05.681Z,-1.58
2019-02-05T22:31:08.416Z,-1.48
2019-02-05T22:36:09.942Z,-1.47
2019-02-05T22:41:11.387Z,-1.43
2019-02-05T22:46:13.059Z,-1.35
2019-02-05T22:51:14.872Z,-1.34
2019-02-05T22:56:16.427Z,-1.25
2019-02-05T23:01:26.957Z,-1.24
2019-02-05T23:06:40.330Z,-1.33
2019-02-05T23:12:04.832Z,-1.32
2019-02-05T23:17:06.765Z,-1.32
2019-02-05T23:22:08.751Z,-1.39
2019-02-05T23:27:10.200Z,-1.37
2019-02-05T23:32:11.945Z,-1.39
2019-02-05T23:37:13.472Z,-1.40
2019-02-05T23:42:15.077Z,-1.37
2019-02-05T23:47:16.532Z,-1.37
2019-02-05T23:52:18.092Z,-1.35
2019-02-05T23:57:19.521Z,-1.24
